Thalassa — FNFP — position and weather

sailwx.info

Track history (hours):
 
Tides and Currents Weather Stations Pressure Air Temp Water Temp Dewpoint Dewpoint Depression Visibility Wind Speed Wind Dir Waves Ship Positions

Oceanographic research ship Thalassa (France & Spain)

Detailed information on ship capabilities available from University of Delaware's Ocean Information Center.

Last reported at 2016-Dec-02 16:05 UTC. Time now 2016-Dec-03 04:39 UTC.
Position N 48°23' W 004°29'.

Length 74 m; beam 15 m.

Type: Ship. MMSI: 227297000.

Date/timePositionNaut miles runAvg speedWind from/ knotsBaromVisibWave heightAir tempDewpointWater temp
2016-Dec-02 16:05N 48°23' W 004°29'0 0.0
2016-Dec-02 15:32N 48°23' W 004°29'0 0.0
2016-Dec-02 14:32N 48°23' W 004°29'0 0.0
2016-Dec-02 13:32N 48°23' W 004°29'0 0.0
2016-Dec-02 12:32N 48°23' W 004°29'0 0.0
2016-Dec-02 11:32N 48°23' W 004°29'0 0.0
2016-Dec-02 10:32N 48°23' W 004°29'0 0.0
2016-Dec-02 09:32N 48°23' W 004°29'0 0.0
2016-Dec-02 08:32N 48°23' W 004°29'0 0.0
2016-Dec-02 07:32N 48°23' W 004°29'0 0.0
2016-Dec-02 06:32N 48°23' W 004°29'0 0.0
2016-Dec-02 05:32N 48°23' W 004°29'0 0.0
2016-Dec-02 04:32N 48°23' W 004°29'0 0.0
2016-Dec-02 03:32N 48°23' W 004°29'0 0.0
2016-Dec-02 02:32N 48°23' W 004°29'0 0.0
2016-Dec-02 01:32N 48°23' W 004°29'0 0.0
2016-Dec-02 00:32N 48°23' W 004°29'0 0.0
2016-Dec-01 23:32N 48°23' W 004°29'0 0.0
2016-Dec-01 22:32N 48°23' W 004°29'0 0.0
2016-Dec-01 21:32N 48°23' W 004°29'0 0.0
2016-Dec-01 20:32N 48°23' W 004°29'0 0.0
2016-Dec-01 19:32N 48°23' W 004°29'0 0.0
2016-Dec-01 18:32N 48°23' W 004°29'0 0.0
2016-Dec-01 17:32N 48°23' W 004°29'0 0.0
2016-Dec-01 16:32N 48°23' W 004°29'0 0.0
2016-Dec-01 15:32N 48°23' W 004°29'0 0.0
2016-Dec-01 14:32N 48°23' W 004°29'0 0.0
2016-Dec-01 13:32N 48°23' W 004°29'0 0.0
2016-Dec-01 12:32N 48°23' W 004°29'0 0.0
2016-Dec-01 11:32N 48°23' W 004°29'0 0.0
2016-Dec-01 10:32N 48°23' W 004°29'0 0.0
2016-Dec-01 09:32N 48°23' W 004°29'0 0.0
2016-Dec-01 08:32N 48°23' W 004°29'0 0.0
2016-Dec-01 07:32N 48°23' W 004°29'0 0.0
2016-Dec-01 06:32N 48°23' W 004°29'0 0.0
2016-Dec-01 05:32N 48°23' W 004°29'0 0.0
2016-Dec-01 04:32N 48°23' W 004°29'0 0.0
2016-Dec-01 03:32N 48°23' W 004°29'0 0.0
2016-Dec-01 02:32N 48°23' W 004°29'0 0.0
2016-Dec-01 01:32N 48°23' W 004°29'0 0.0
2016-Dec-01 00:32N 48°23' W 004°29'0 0.0
2016-Nov-30 23:32N 48°23' W 004°29'0 0.0
2016-Nov-30 22:32N 48°23' W 004°29'0 0.0
2016-Nov-30 21:32N 48°23' W 004°29'0 0.0
2016-Nov-30 20:32N 48°23' W 004°29'0 0.0
2016-Nov-30 19:32N 48°23' W 004°29'0 0.0
2016-Nov-30 18:32N 48°23' W 004°29'0 0.0
2016-Nov-30 17:32N 48°23' W 004°29'0 0.0
2016-Nov-30 16:32N 48°23' W 004°29'0 0.0
2016-Nov-30 15:32N 48°23' W 004°29'3 3.1
2016-Nov-30 14:33N 48°21' W 004°32'1212.2
2016-Nov-30 13:34N 48°17' W 004°50'1111.3
2016-Nov-30 12:34N 48°19' W 005°06'1111.3
2016-Nov-30 11:33N 48°21' W 005°23'46 4.9
2016-Nov-30 02:04N 48°45' W 006°23'4 7.3
2016-Nov-30 01:33N 48°48' W 006°26'14 6.9
2016-Nov-29 23:30N 48°59' W 006°40'7 6.6
2016-Nov-29 22:30N 49°04' W 006°46'7 6.9
2016-Nov-29 21:32N 49°10' W 006°52'6 6.4
2016-Nov-29 20:34N 49°14' W 006°58'7 6.6
2016-Nov-29 19:32N 49°20' W 007°04'6 4.2
2016-Nov-29 18:07N 49°22' W 007°13'20 2.6
2016-Nov-29 10:25N 49°41' W 007°22'105 2.7
2016-Nov-27 19:33N 51°08' W 005°50'1312.8
2016-Nov-27 18:33N 51°07' W 005°30'1212.3
2016-Nov-27 17:34N 51°06' W 005°11'1 1.3
2016-Nov-27 16:33N 51°06' W 005°09'3 2.9
2016-Nov-27 15:34N 51°05' W 005°04'9 9.4
2016-Nov-27 14:34N 51°13' W 004°56'1110.4
2016-Nov-27 13:28N 51°23' W 004°48'5 4.2
2016-Nov-27 12:19N 51°22' W 004°55'23 4.8
2016-Nov-27 07:33N 51°14' W 005°29'2 1.8
2016-Nov-27 06:31N 51°16' W 005°31'1 0.4
2016-Nov-27 04:33N 51°16' W 005°32'1 1.2
2016-Nov-27 03:32N 51°17' W 005°34'53 2.2
2016-Nov-26 03:21N 51°46' W 006°45'0 0.4
2016-Nov-26 02:31N 51°45' W 006°45'4 3.4
2016-Nov-26 01:23N 51°48' W 006°41'2 2.1
2016-Nov-26 00:29N 51°47' W 006°43'1 1.3
2016-Nov-25 23:29N 51°46' W 006°44'16 3.8
2016-Nov-25 19:21N 51°42' W 007°09'8 9.0
2016-Nov-25 18:30N 51°39' W 007°21'3 2.9
2016-Nov-25 17:33N 51°38' W 007°25'2 1.5
2016-Nov-25 16:32N 51°37' W 007°27'7 6.7
2016-Nov-25 15:32N 51°31' W 007°29'14 6.8
2016-Nov-25 13:32N 51°17' W 007°30'9 9.1
2016-Nov-25 12:31N 51°22' W 007°43'3 3.1
2016-Nov-25 11:32N 51°20' W 007°47'7 7.1
2016-Nov-25 10:33N 51°26' W 007°53'9 9.2
2016-Nov-25 09:34N 51°29' W 008°07'8 7.7
2016-Nov-25 08:33N 51°32' W 008°18'3 3.0
2016-Nov-25 07:34N 51°31' W 008°23'1 1.3
2016-Nov-25 06:34N 51°31' W 008°21'1 0.7
2016-Nov-25 05:33N 51°31' W 008°22'5 4.5
2016-Nov-25 04:34N 51°28' W 008°26'6 5.6
2016-Nov-25 03:34N 51°23' W 008°31'6 5.3
2016-Nov-25 02:28N 51°18' W 008°37'5 5.3
2016-Nov-25 01:29N 51°14' W 008°42'5 5.2
2016-Nov-25 00:32N 51°10' W 008°47'5 5.1
2016-Nov-24 23:33N 51°06' W 008°51'5 5.0
2016-Nov-24 22:28N 51°02' W 008°56'10 1.9
2016-Nov-24 17:21N 50°55' W 009°06'19 3.3
2016-Nov-24 11:29N 50°57' W 009°37'4 3.7
2016-Nov-24 10:31N 50°54' W 009°40'14 2.3
2016-Nov-24 04:22N 50°46' W 009°57'  
Track history (hours):
 
Tides and Currents Weather Stations Pressure Air Temp Water Temp Dewpoint Dewpoint Depression Visibility Wind Speed Wind Dir Waves Ship Positions

Oceanographic research ship Thalassa (France & Spain)

Detailed information on ship capabilities available from University of Delaware's Ocean Information Center.

Last reported at 2016-Dec-02 16:05 UTC. Time now 2016-Dec-03 04:39 UTC.
Position N 48°23' W 004°29'.

Length 74 m; beam 15 m.

Type: Ship. MMSI: 227297000.

Date/timePositionNaut miles runAvg speedWind from/ knotsBaromVisibWave heightAir tempDewpointWater temp
2016-Dec-02 16:05N 48°23' W 004°29'0 0.0
2016-Dec-02 15:32N 48°23' W 004°29'0 0.0
2016-Dec-02 14:32N 48°23' W 004°29'0 0.0
2016-Dec-02 13:32N 48°23' W 004°29'0 0.0
2016-Dec-02 12:32N 48°23' W 004°29'0 0.0
2016-Dec-02 11:32N 48°23' W 004°29'0 0.0
2016-Dec-02 10:32N 48°23' W 004°29'0 0.0
2016-Dec-02 09:32N 48°23' W 004°29'0 0.0
2016-Dec-02 08:32N 48°23' W 004°29'0 0.0
2016-Dec-02 07:32N 48°23' W 004°29'0 0.0
2016-Dec-02 06:32N 48°23' W 004°29'0 0.0
2016-Dec-02 05:32N 48°23' W 004°29'0 0.0
2016-Dec-02 04:32N 48°23' W 004°29'0 0.0
2016-Dec-02 03:32N 48°23' W 004°29'0 0.0
2016-Dec-02 02:32N 48°23' W 004°29'0 0.0
2016-Dec-02 01:32N 48°23' W 004°29'0 0.0
2016-Dec-02 00:32N 48°23' W 004°29'0 0.0
2016-Dec-01 23:32N 48°23' W 004°29'0 0.0
2016-Dec-01 22:32N 48°23' W 004°29'0 0.0
2016-Dec-01 21:32N 48°23' W 004°29'0 0.0
2016-Dec-01 20:32N 48°23' W 004°29'0 0.0
2016-Dec-01 19:32N 48°23' W 004°29'0 0.0
2016-Dec-01 18:32N 48°23' W 004°29'0 0.0
2016-Dec-01 17:32N 48°23' W 004°29'0 0.0
2016-Dec-01 16:32N 48°23' W 004°29'0 0.0
2016-Dec-01 15:32N 48°23' W 004°29'0 0.0
2016-Dec-01 14:32N 48°23' W 004°29'0 0.0
2016-Dec-01 13:32N 48°23' W 004°29'0 0.0
2016-Dec-01 12:32N 48°23' W 004°29'0 0.0
2016-Dec-01 11:32N 48°23' W 004°29'0 0.0
2016-Dec-01 10:32N 48°23' W 004°29'0 0.0
2016-Dec-01 09:32N 48°23' W 004°29'0 0.0
2016-Dec-01 08:32N 48°23' W 004°29'0 0.0
2016-Dec-01 07:32N 48°23' W 004°29'0 0.0
2016-Dec-01 06:32N 48°23' W 004°29'0 0.0
2016-Dec-01 05:32N 48°23' W 004°29'0 0.0
2016-Dec-01 04:32N 48°23' W 004°29'0 0.0
2016-Dec-01 03:32N 48°23' W 004°29'0 0.0
2016-Dec-01 02:32N 48°23' W 004°29'0 0.0
2016-Dec-01 01:32N 48°23' W 004°29'0 0.0
2016-Dec-01 00:32N 48°23' W 004°29'0 0.0
2016-Nov-30 23:32N 48°23' W 004°29'0 0.0
2016-Nov-30 22:32N 48°23' W 004°29'0 0.0
2016-Nov-30 21:32N 48°23' W 004°29'0 0.0
2016-Nov-30 20:32N 48°23' W 004°29'0 0.0
2016-Nov-30 19:32N 48°23' W 004°29'0 0.0
2016-Nov-30 18:32N 48°23' W 004°29'0 0.0
2016-Nov-30 17:32N 48°23' W 004°29'0 0.0
2016-Nov-30 16:32N 48°23' W 004°29'0 0.0
2016-Nov-30 15:32N 48°23' W 004°29'3 3.1
2016-Nov-30 14:33N 48°21' W 004°32'1212.2
2016-Nov-30 13:34N 48°17' W 004°50'1111.3
2016-Nov-30 12:34N 48°19' W 005°06'1111.3
2016-Nov-30 11:33N 48°21' W 005°23'46 4.9
2016-Nov-30 02:04N 48°45' W 006°23'4 7.3
2016-Nov-30 01:33N 48°48' W 006°26'14 6.9
2016-Nov-29 23:30N 48°59' W 006°40'7 6.6
2016-Nov-29 22:30N 49°04' W 006°46'7 6.9
2016-Nov-29 21:32N 49°10' W 006°52'6 6.4
2016-Nov-29 20:34N 49°14' W 006°58'7 6.6
2016-Nov-29 19:32N 49°20' W 007°04'6 4.2
2016-Nov-29 18:07N 49°22' W 007°13'20 2.6
2016-Nov-29 10:25N 49°41' W 007°22'105 2.7
2016-Nov-27 19:33N 51°08' W 005°50'1312.8
2016-Nov-27 18:33N 51°07' W 005°30'1212.3
2016-Nov-27 17:34N 51°06' W 005°11'1 1.3
2016-Nov-27 16:33N 51°06' W 005°09'3 2.9
2016-Nov-27 15:34N 51°05' W 005°04'9 9.4
2016-Nov-27 14:34N 51°13' W 004°56'1110.4
2016-Nov-27 13:28N 51°23' W 004°48'5 4.2
2016-Nov-27 12:19N 51°22' W 004°55'23 4.8
2016-Nov-27 07:33N 51°14' W 005°29'2 1.8
2016-Nov-27 06:31N 51°16' W 005°31'1 0.4
2016-Nov-27 04:33N 51°16' W 005°32'1 1.2
2016-Nov-27 03:32N 51°17' W 005°34'53 2.2
2016-Nov-26 03:21N 51°46' W 006°45'0 0.4
2016-Nov-26 02:31N 51°45' W 006°45'4 3.4
2016-Nov-26 01:23N 51°48' W 006°41'2 2.1
2016-Nov-26 00:29N 51°47' W 006°43'1 1.3
2016-Nov-25 23:29N 51°46' W 006°44'16 3.8
2016-Nov-25 19:21N 51°42' W 007°09'8 9.0
2016-Nov-25 18:30N 51°39' W 007°21'3 2.9
2016-Nov-25 17:33N 51°38' W 007°25'2 1.5
2016-Nov-25 16:32N 51°37' W 007°27'7 6.7
2016-Nov-25 15:32N 51°31' W 007°29'14 6.8
2016-Nov-25 13:32N 51°17' W 007°30'9 9.1
2016-Nov-25 12:31N 51°22' W 007°43'3 3.1
2016-Nov-25 11:32N 51°20' W 007°47'7 7.1
2016-Nov-25 10:33N 51°26' W 007°53'9 9.2
2016-Nov-25 09:34N 51°29' W 008°07'8 7.7
2016-Nov-25 08:33N 51°32' W 008°18'3 3.0
2016-Nov-25 07:34N 51°31' W 008°23'1 1.3
2016-Nov-25 06:34N 51°31' W 008°21'1 0.7
2016-Nov-25 05:33N 51°31' W 008°22'5 4.5
2016-Nov-25 04:34N 51°28' W 008°26'6 5.6
2016-Nov-25 03:34N 51°23' W 008°31'6 5.3
2016-Nov-25 02:28N 51°18' W 008°37'5 5.3
2016-Nov-25 01:29N 51°14' W 008°42'5 5.2
2016-Nov-25 00:32N 51°10' W 008°47'5 5.1
2016-Nov-24 23:33N 51°06' W 008°51'5 5.0
2016-Nov-24 22:28N 51°02' W 008°56'10 1.9
2016-Nov-24 17:21N 50°55' W 009°06'19 3.3
2016-Nov-24 11:29N 50°57' W 009°37'4 3.7
2016-Nov-24 10:31N 50°54' W 009°40'14 2.3
2016-Nov-24 04:22N 50°46' W 009°57'  

Dump ship's entire track history